Argonia, KS

7:29 AM CDT on August 05, 2015 (GMT -0500)
NonFedAWOS | | Change Station
CLOSE
Current Station
Personal Weather Station
Location: Harper, KS
Elevation: 1426 ft
Nearby Weather Stations

Elev 1426 ft 37.28 °N, 98.04 °W | Updated 54 minutes ago

Partly Cloudy
Partly Cloudy
72 °F
Feels Like 72 °F
N
0
Wind Variable Wind from North
Gusts 0.0 mph

Today
High -- | Low -- °F
--% Chance of Precip.
Yesterday
High -- | Low -- °F
Precip. -- in
6:38 AM 8:34 PM
Waning Gibbous, 67% visible
Pressure 29.97 in
Visibility 1.0 miles
Clouds Overcast 2100 ft
Dew Point 72 °F
Humidity 100%
Rainfall in
Snow Depth Not available.
UV 0 out of 12
Pollen 2.50 out of 12
Air Quality Not available.
Flu Activity Not available.
SPECI KICT 051217Z 05005KT 1SM R01L/4000VP6000FT +TSRA BR OVC021CB 21/19 A2997 RMK AO2 FRQ LTGICCCCG ALQDS TS ALQDS MOV SE P0045 T02110189

More Conditions Fewer Conditions

Pressure 29.97 in
Visibility 1.0 miles
Clouds Overcast 2100 ft
Dew Point 72 °F
Humidity 100%
Rainfall in
Snow Depth Not available.
UV 0 out of 12
Pollen 2.50 out of 12
Air Quality Not available.
Flu Activity Not available.
SPECI KICT 051217Z 05005KT 1SM R01L/4000VP6000FT +TSRA BR OVC021CB 21/19 A2997 RMK AO2 FRQ LTGICCCCG ALQDS TS ALQDS MOV SE P0045 T02110189

More Conditions Fewer Conditions

10-Day Weather Forecast

×

Almanac

Astronomy

Aug. 05, 2015 Rise Set
Actual Time
Civil Twilight
Nautical Twilight
Astronomical Twilight
Moon
Length of Visible Light
Length of Day
Tomorrow will be .
, % of the Moon is Illuminated

Today's Extremes

State Highs State Lows

Community

WunderPhotos

Upload Photos

1,844,171 photos uploaded!

WunderBlogs® & News

Nearby

Air Quality

  Air Quality AQ Index Pollutant
Not available.

Snow Depth

Station Depth Elevation

Earthquake Activity

City Distance Mag. Time & Date
Minimum magnitude displayed is 2.5.

Coastal Water Temperatures

Place Temperature

Stations

Nearby Weather Stations

Station Location Temp. Windchill Dew Point Humidity Wind Precip. Elev Updated Type
                   
Severe Thunderstorm Watch
Statement as of 7:24 AM CDT on August 05, 2015

Severe Thunderstorm Watch 472 remains in effect until 1100 am CDT
for the following locations


KS
. Kansas counties included are

Allen Barton Bourbon
Butler Chautauqua Cherokee
Cowley Crawford Elk
Ellsworth Greenwood Harvey
Kingman Labette McPherson
Montgomery Neosho Reno
Rice Sedgwick Sumner
Wilson Woodson